Time;durP1;ratioP1;P1;durP2;ratioP2;P2;SDS_P1;SDS_P2;PMS_P1;PMS_P2;Temp;Humidity;BMP_temperature;BMP_pressure;BME280_temperature;BME280_humidity;BME280_pressure;Samples;Min_cycle;Max_cycle;Signal;HPM_P1;HPM_P2
2021/06/03 00:02:18;;;;;;;18.25;9.70;;;19.60;67.90;;;;;;5021832;28;20037;-61
2021/06/03 00:04:43;;;;;;;12.20;8.98;;;19.60;67.70;;;;;;5022132;28;20033;-61
2021/06/03 00:07:11;;;;;;;16.35;9.15;;;19.60;67.50;;;;;;5022511;28;20415;-61
2021/06/03 00:09:36;;;;;;;16.80;9.00;;;19.60;67.40;;;;;;5022452;28;20043;-61
2021/06/03 00:12:04;;;;;;;16.95;8.20;;;19.50;67.30;;;;;;5021547;28;20090;-62
2021/06/03 00:14:30;;;;;;;12.00;7.55;;;19.50;67.30;;;;;;5024437;28;20112;-61
2021/06/03 00:16:55;;;;;;;12.63;7.57;;;19.50;67.40;;;;;;5021824;28;20128;-61
2021/06/03 00:19:21;;;;;;;13.10;7.53;;;19.50;67.30;;;;;;5020975;28;20049;-61
2021/06/03 00:21:47;;;;;;;16.75;8.50;;;19.40;67.30;;;;;;5022321;28;20041;-61
2021/06/03 00:24:13;;;;;;;9.77;7.65;;;19.40;67.30;;;;;;5021452;28;20042;-61
2021/06/03 00:26:39;;;;;;;12.18;7.90;;;19.40;67.30;;;;;;5023633;28;20065;-61
2021/06/03 00:29:05;;;;;;;11.27;7.53;;;19.40;67.30;;;;;;5023777;28;20495;-61
2021/06/03 00:31:32;;;;;;;10.98;7.05;;;19.30;67.30;;;;;;5022855;28;20057;-60
2021/06/03 00:33:59;;;;;;;12.23;7.47;;;19.30;67.50;;;;;;5037850;28;20116;-61
2021/06/03 00:36:25;;;;;;;9.23;7.70;;;19.20;67.60;;;;;;5020682;28;20033;-61
2021/06/03 00:38:50;;;;;;;9.70;7.55;;;19.20;67.80;;;;;;5022675;28;20050;-61
2021/06/03 00:41:18;;;;;;;13.70;7.60;;;19.10;68.00;;;;;;5023481;28;20049;-60
2021/06/03 00:43:45;;;;;;;9.73;7.68;;;19.10;68.10;;;;;;5022922;28;20053;-60
2021/06/03 00:46:11;;;;;;;11.10;7.82;;;19.00;68.00;;;;;;5023267;28;20041;-60
2021/06/03 00:48:37;;;;;;;9.50;7.93;;;19.00;68.30;;;;;;5021975;28;20052;-61
2021/06/03 00:51:06;;;;;;;10.73;8.27;;;18.90;68.60;;;;;;5022428;28;20037;-61
2021/06/03 00:53:34;;;;;;;11.38;7.78;;;18.80;68.90;;;;;;5022201;28;20041;-60
2021/06/03 00:56:01;;;;;;;12.18;7.75;;;18.70;69.00;;;;;;5023921;28;20052;-60
2021/06/03 00:58:27;;;;;;;9.75;8.35;;;18.70;69.30;;;;;;5023967;28;20041;-60
2021/06/03 01:00:55;;;;;;;11.80;7.55;;;18.70;69.50;;;;;;5021160;28;20045;-60
2021/06/03 01:03:23;;;;;;;11.23;7.47;;;18.60;69.60;;;;;;5023811;28;20056;-60
2021/06/03 01:05:51;;;;;;;20.60;9.73;;;18.60;69.70;;;;;;5023295;28;20045;-60
2021/06/03 01:08:42;;;;;;;9.45;7.63;;;18.50;69.60;;;;;;5021506;28;20030;-60
2021/06/03 01:11:29;;;;;;;11.48;7.47;;;18.60;69.40;;;;;;5023172;28;20656;-60
2021/06/03 01:14:14;;;;;;;8.80;7.78;;;18.60;69.10;;;;;;5019752;28;20045;-60
2021/06/03 01:16:41;;;;;;;12.10;8.30;;;18.50;68.90;;;;;;5020916;28;20111;-61
2021/06/03 01:19:14;;;;;;;9.88;8.52;;;18.60;68.80;;;;;;5019812;28;20122;-61
2021/06/03 01:21:46;;;;;;;14.25;8.25;;;18.60;68.70;;;;;;5037451;28;21004;-60
2021/06/03 01:24:25;;;;;;;11.00;7.03;;;18.50;68.80;;;;;;5024127;28;20511;-60
2021/06/03 01:26:57;;;;;;;10.55;7.00;;;18.50;68.70;;;;;;5022292;28;20574;-60
2021/06/03 01:29:23;;;;;;;7.82;6.88;;;18.40;68.50;;;;;;5023013;28;20033;-60
2021/06/03 01:31:51;;;;;;;10.95;7.50;;;18.50;68.50;;;;;;5022070;28;20076;-60
2021/06/03 01:34:19;;;;;;;12.98;7.20;;;18.50;68.40;;;;;;5021474;28;20044;-60
2021/06/03 01:36:47;;;;;;;9.32;6.55;;;18.50;67.80;;;;;;5022740;28;20052;-60
2021/06/03 01:39:14;;;;;;;8.48;6.28;;;18.50;67.20;;;;;;5023136;28;20034;-60
2021/06/03 01:41:40;;;;;;;9.57;7.38;;;18.50;66.90;;;;;;5021562;28;20041;-60
2021/06/03 01:44:10;;;;;;;8.07;7.13;;;18.60;66.50;;;;;;5021536;28;20044;-60
2021/06/03 01:46:36;;;;;;;7.75;6.88;;;18.70;66.40;;;;;;5021588;28;20084;-60
2021/06/03 01:49:03;;;;;;;12.82;7.25;;;18.70;66.40;;;;;;5021241;28;20052;-61
2021/06/03 01:51:31;;;;;;;8.35;6.65;;;18.70;66.40;;;;;;5036468;28;20049;-60
2021/06/03 01:53:57;;;;;;;8.35;6.80;;;18.60;66.00;;;;;;5023925;28;20112;-61
2021/06/03 01:56:23;;;;;;;7.32;6.05;;;18.70;66.10;;;;;;5019554;28;20610;-60
2021/06/03 01:58:49;;;;;;;9.27;6.47;;;18.60;65.50;;;;;;5022188;28;20114;-60
2021/06/03 02:01:18;;;;;;;9.35;6.38;;;18.70;65.30;;;;;;5023319;28;20049;-61
2021/06/03 02:03:44;;;;;;;9.77;6.30;;;18.70;64.80;;;;;;5021044;28;20382;-60
2021/06/03 02:06:10;;;;;;;6.93;5.60;;;18.70;64.60;;;;;;5020372;28;20049;-60
2021/06/03 02:08:36;;;;;;;10.98;5.85;;;18.80;64.40;;;;;;5021967;28;20038;-60
2021/06/03 02:11:04;;;;;;;7.05;5.32;;;18.80;64.40;;;;;;5021985;28;20497;-61
2021/06/03 02:13:39;;;;;;;8.45;6.45;;;18.80;64.30;;;;;;5021189;28;20042;-61
2021/06/03 02:16:25;;;;;;;7.40;6.20;;;18.70;64.30;;;;;;5021344;28;20045;-60
2021/06/03 02:19:05;;;;;;;7.53;5.95;;;18.70;64.00;;;;;;5020699;28;20124;-60
2021/06/03 02:21:34;;;;;;;7.40;5.43;;;18.70;64.30;;;;;;5020950;28;20045;-61
2021/06/03 02:24:01;;;;;;;9.75;5.40;;;18.70;64.30;;;;;;5020856;28;20051;-61
2021/06/03 02:26:27;;;;;;;9.55;6.50;;;18.70;63.90;;;;;;5020408;28;20034;-60
2021/06/03 02:28:54;;;;;;;10.07;5.70;;;18.70;64.10;;;;;;5021427;28;20038;-60
2021/06/03 02:31:22;;;;;;;7.57;5.32;;;18.70;64.00;;;;;;5020777;28;20057;-61
2021/06/03 02:33:49;;;;;;;5.88;5.20;;;18.60;63.90;;;;;;5022265;28;20044;-60
2021/06/03 02:36:16;;;;;;;8.27;5.47;;;18.60;63.90;;;;;;5021837;28;20053;-60
2021/06/03 02:38:42;;;;;;;6.13;5.00;;;18.60;63.90;;;;;;5021235;28;20051;-60
2021/06/03 02:41:09;;;;;;;6.28;4.97;;;18.60;63.60;;;;;;5020757;28;20388;-60
2021/06/03 02:43:37;;;;;;;6.78;5.05;;;18.60;63.80;;;;;;5022265;28;20033;-61
2021/06/03 02:46:04;;;;;;;6.00;5.38;;;18.60;63.50;;;;;;5021782;28;20049;-60
2021/06/03 02:48:30;;;;;;;6.78;5.22;;;18.60;63.60;;;;;;5021184;28;20477;-60
2021/06/03 02:50:56;;;;;;;7.03;5.28;;;18.50;63.90;;;;;;5020957;28;20048;-60
2021/06/03 02:53:22;;;;;;;8.10;5.00;;;18.40;63.90;;;;;;5019997;28;20346;-60
2021/06/03 02:55:48;;;;;;;5.50;4.88;;;18.40;64.10;;;;;;5023761;28;20061;-61
2021/06/03 02:58:14;;;;;;;6.15;4.72;;;18.40;64.20;;;;;;5019682;28;20064;-61
2021/06/03 03:00:40;;;;;;;7.80;5.13;;;18.30;64.10;;;;;;5020664;28;22255;-60
2021/06/03 03:03:08;;;;;;;6.80;4.50;;;18.30;64.50;;;;;;5021295;28;20167;-60
2021/06/03 03:05:39;;;;;;;5.03;4.45;;;18.30;64.00;;;;;;5023990;28;20038;-61
2021/06/03 03:08:05;;;;;;;7.88;4.93;;;18.30;63.90;;;;;;5023717;28;20038;-60
2021/06/03 03:10:35;;;;;;;6.15;5.10;;;18.30;63.80;;;;;;5040800;28;20052;-60
2021/06/03 03:13:01;;;;;;;6.85;5.07;;;18.30;63.70;;;;;;5023509;28;20041;-61
2021/06/03 03:15:27;;;;;;;8.98;5.30;;;18.30;63.70;;;;;;5025030;28;20033;-61
2021/06/03 03:17:53;;;;;;;8.43;5.22;;;18.30;63.60;;;;;;5023727;28;20473;-61
2021/06/03 03:20:22;;;;;;;5.93;4.78;;;18.30;63.70;;;;;;5024166;28;20037;-60
2021/06/03 03:22:48;;;;;;;5.50;4.90;;;18.30;63.80;;;;;;5022940;28;20033;-60
2021/06/03 03:25:16;;;;;;;5.65;4.80;;;18.20;63.60;;;;;;5023338;28;20033;-60
2021/06/03 03:27:45;;;;;;;7.82;5.28;;;18.30;63.40;;;;;;5024166;28;20099;-60
2021/06/03 03:30:12;;;;;;;6.80;5.10;;;18.20;63.30;;;;;;5023075;28;20069;-60
2021/06/03 03:32:39;;;;;;;5.93;4.95;;;18.30;63.40;;;;;;5024898;28;20587;-60
2021/06/03 03:35:07;;;;;;;7.95;5.45;;;18.30;63.30;;;;;;5023485;28;20100;-60
2021/06/03 03:37:33;;;;;;;10.32;4.90;;;18.30;63.50;;;;;;5024126;28;20029;-60
2021/06/03 03:39:59;;;;;;;8.27;5.55;;;18.20;63.60;;;;;;5024917;28;20043;-60
2021/06/03 03:42:25;;;;;;;5.53;4.53;;;18.20;63.70;;;;;;5024613;28;20073;-60
2021/06/03 03:44:51;;;;;;;6.45;4.80;;;18.20;63.60;;;;;;5025351;28;20495;-60
2021/06/03 03:47:18;;;;;;;10.20;5.30;;;18.20;63.70;;;;;;5023370;28;20398;-60
2021/06/03 03:49:44;;;;;;;5.32;4.82;;;18.10;63.70;;;;;;5022876;28;20061;-60
2021/06/03 03:52:10;;;;;;;5.72;4.75;;;18.10;63.70;;;;;;5024726;28;20042;-60
2021/06/03 03:54:37;;;;;;;7.57;5.25;;;18.10;64.00;;;;;;5023396;28;20088;-60
2021/06/03 03:57:03;;;;;;;5.80;5.20;;;18.10;64.40;;;;;;5024818;28;20404;-61
2021/06/03 03:59:29;;;;;;;5.97;5.10;;;18.00;64.90;;;;;;5023271;28;20051;-61
2021/06/03 04:01:56;;;;;;;6.80;4.78;;;17.80;65.30;;;;;;5025351;28;20463;-61
2021/06/03 04:04:22;;;;;;;8.82;5.70;;;17.70;65.70;;;;;;5022919;28;20048;-61
2021/06/03 04:06:49;;;;;;;6.22;5.32;;;17.70;66.10;;;;;;5023406;28;20034;-60
2021/06/03 04:09:16;;;;;;;7.05;4.85;;;17.60;66.40;;;;;;5021337;28;20042;-60
2021/06/03 04:11:42;;;;;;;7.55;5.80;;;17.60;66.60;;;;;;5025337;28;20464;-60
2021/06/03 04:14:08;;;;;;;10.65;5.18;;;17.60;67.20;;;;;;5022461;28;20052;-60
2021/06/03 04:16:35;;;;;;;11.18;5.40;;;17.70;66.70;;;;;;5024247;28;20501;-60
2021/06/03 04:19:01;;;;;;;6.07;4.68;;;17.70;66.50;;;;;;5024627;28;20131;-60
2021/06/03 04:21:27;;;;;;;9.38;5.10;;;17.80;66.40;;;;;;5022724;28;20057;-60
2021/06/03 04:23:53;;;;;;;6.38;5.63;;;17.80;66.00;;;;;;5022831;28;20045;-60
2021/06/03 04:26:19;;;;;;;6.72;5.38;;;17.90;65.90;;;;;;5023054;28;20674;-60
2021/06/03 04:28:45;;;;;;;7.68;5.78;;;17.80;65.80;;;;;;5023694;28;20421;-60
2021/06/03 04:31:11;;;;;;;8.73;5.00;;;17.90;65.80;;;;;;5023670;28;20061;-60
2021/06/03 04:33:37;;;;;;;9.25;6.00;;;17.90;65.80;;;;;;5019978;28;20045;-60
2021/06/03 04:36:05;;;;;;;8.48;4.95;;;18.00;65.90;;;;;;5020894;28;20095;-60
2021/06/03 04:38:30;;;;;;;6.80;4.57;;;18.00;65.80;;;;;;5023861;28;20033;-60
2021/06/03 04:40:56;;;;;;;6.75;5.15;;;18.10;66.00;;;;;;5024341;28;20112;-60
2021/06/03 04:43:22;;;;;;;8.48;5.88;;;18.20;66.10;;;;;;5023598;28;20040;-60
2021/06/03 04:45:49;;;;;;;13.00;5.60;;;18.20;66.20;;;;;;5021271;28;20061;-60
2021/06/03 04:48:16;;;;;;;7.75;5.15;;;18.20;66.40;;;;;;5023135;28;20049;-60
2021/06/03 04:50:42;;;;;;;16.80;5.90;;;18.20;66.40;;;;;;5021857;28;20496;-60
2021/06/03 04:53:08;;;;;;;8.55;5.07;;;18.30;66.40;;;;;;5023133;28;20041;-60
2021/06/03 04:55:35;;;;;;;5.40;4.90;;;18.30;66.40;;;;;;5023284;28;20061;-61
2021/06/03 04:58:02;;;;;;;9.55;5.35;;;18.30;66.40;;;;;;5021057;28;20155;-60
2021/06/03 05:00:31;;;;;;;5.78;5.18;;;18.30;66.50;;;;;;5023368;28;20037;-60
2021/06/03 05:02:57;;;;;;;8.52;5.88;;;18.30;66.80;;;;;;5022979;28;20056;-61
2021/06/03 05:05:24;;;;;;;47.08;7.28;;;18.30;67.10;;;;;;5022038;28;20048;-61
2021/06/03 05:07:50;;;;;;;44.03;7.45;;;18.30;67.40;;;;;;5023220;28;20032;-60
2021/06/03 05:10:17;;;;;;;15.18;5.45;;;18.30;67.70;;;;;;5020015;28;20049;-61
2021/06/03 05:12:45;;;;;;;8.43;5.45;;;18.20;67.90;;;;;;5022682;28;20037;-65
2021/06/03 05:15:12;;;;;;;9.38;5.70;;;18.30;68.30;;;;;;5021442;28;20034;-67
2021/06/03 05:17:38;;;;;;;7.80;5.63;;;18.20;68.40;;;;;;5020909;28;20484;-63
2021/06/03 05:20:07;;;;;;;7.93;5.40;;;18.20;68.40;;;;;;5022724;28;20041;-63
2021/06/03 05:22:33;;;;;;;8.35;5.80;;;18.30;68.60;;;;;;5024434;28;20152;-63
2021/06/03 05:24:58;;;;;;;11.38;6.10;;;18.30;68.60;;;;;;5018056;28;20066;-63
2021/06/03 05:27:24;;;;;;;7.28;5.57;;;18.30;68.40;;;;;;5021684;28;20133;-63
2021/06/03 05:29:50;;;;;;;9.82;5.15;;;18.40;68.30;;;;;;5020356;28;20037;-63
2021/06/03 05:32:16;;;;;;;14.52;6.38;;;18.40;68.20;;;;;;5021419;28;20122;-63
2021/06/03 05:34:42;;;;;;;8.82;5.88;;;18.50;68.30;;;;;;5021397;28;20037;-63
2021/06/03 05:37:07;;;;;;;6.60;5.78;;;18.50;68.00;;;;;;5021283;28;20416;-64
2021/06/03 05:39:33;;;;;;;9.07;5.95;;;18.60;67.90;;;;;;5021756;28;20188;-64
2021/06/03 05:42:01;;;;;;;8.48;5.88;;;18.70;67.90;;;;;;5020174;28;20038;-63
2021/06/03 05:44:27;;;;;;;7.45;5.75;;;18.70;67.60;;;;;;5022221;28;20129;-63
2021/06/03 05:46:53;;;;;;;8.95;5.68;;;18.80;67.70;;;;;;5022792;28;20421;-63
2021/06/03 05:49:20;;;;;;;10.55;6.15;;;18.90;67.50;;;;;;5020806;28;20052;-63
2021/06/03 05:51:46;;;;;;;8.80;5.43;;;18.90;67.30;;;;;;5020199;28;20041;-64
2021/06/03 05:54:12;;;;;;;7.78;5.60;;;19.00;67.10;;;;;;5018650;28;20129;-69
2021/06/03 05:56:38;;;;;;;11.27;5.97;;;19.10;67.20;;;;;;5018186;28;20942;-66
2021/06/03 05:59:05;;;;;;;7.22;6.28;;;19.10;67.00;;;;;;5022280;28;20045;-68
2021/06/03 06:01:36;;;;;;;8.63;5.57;;;19.10;67.10;;;;;;5020198;28;20033;-67
2021/06/03 06:06:31;;;;;;;11.23;5.60;;;19.20;67.20;;;;;;5021656;28;20079;-68
2021/06/03 06:08:59;;;;;;;8.77;5.70;;;19.20;67.40;;;;;;5020146;28;20091;-67
2021/06/03 06:11:26;;;;;;;8.10;5.95;;;19.20;67.40;;;;;;5021820;28;20083;-68
2021/06/03 06:13:52;;;;;;;10.75;5.53;;;19.30;67.40;;;;;;5021483;28;20038;-68
2021/06/03 06:16:19;;;;;;;12.45;5.78;;;19.30;67.40;;;;;;5021449;28;20037;-67
2021/06/03 06:18:45;;;;;;;9.50;6.30;;;19.30;67.30;;;;;;5018412;28;20322;-68
2021/06/03 06:21:18;;;;;;;7.15;5.68;;;19.40;67.50;;;;;;5020513;28;20099;-65
2021/06/03 06:23:47;;;;;;;11.90;6.00;;;19.40;67.70;;;;;;5021218;28;20477;-65
2021/06/03 06:26:13;;;;;;;6.38;5.20;;;19.40;67.70;;;;;;5019283;28;20038;-66
2021/06/03 06:28:43;;;;;;;10.63;5.68;;;19.50;67.50;;;;;;5018575;28;20489;-65
2021/06/03 06:31:09;;;;;;;48.85;10.27;;;19.60;67.00;;;;;;5020332;28;20046;-66
2021/06/03 06:33:37;;;;;;;10.70;6.03;;;19.60;66.80;;;;;;5018858;28;20066;-66
2021/06/03 06:36:04;;;;;;;13.95;6.50;;;19.70;66.60;;;;;;5020709;28;20111;-65
2021/06/03 06:38:31;;;;;;;9.73;6.05;;;19.80;67.20;;;;;;5024085;28;20045;-65
2021/06/03 06:40:57;;;;;;;12.80;6.22;;;19.80;66.70;;;;;;5023870;28;20512;-66
2021/06/03 06:43:23;;;;;;;12.15;6.55;;;19.90;67.00;;;;;;5023292;28;20037;-65
2021/06/03 06:45:50;;;;;;;13.13;6.32;;;19.90;66.60;;;;;;5023101;28;20095;-66
2021/06/03 06:48:16;;;;;;;11.82;6.75;;;20.00;66.50;;;;;;5024389;28;20156;-65
2021/06/03 06:50:44;;;;;;;9.55;6.50;;;20.10;66.70;;;;;;5022915;28;20043;-68
2021/06/03 06:53:12;;;;;;;9.93;6.43;;;20.10;66.60;;;;;;5026675;28;20048;-67
2021/06/03 06:55:39;;;;;;;8.63;6.40;;;20.10;66.50;;;;;;5020771;28;20042;-67
2021/06/03 06:58:05;;;;;;;18.50;6.25;;;20.20;66.50;;;;;;5022954;28;20064;-67
2021/06/03 07:00:34;;;;;;;56.58;9.38;;;20.20;66.60;;;;;;5020642;28;20103;-68
2021/06/03 07:03:00;;;;;;;12.98;6.38;;;20.40;66.10;;;;;;5023613;28;20037;-68
2021/06/03 07:05:27;;;;;;;43.40;9.50;;;20.40;65.90;;;;;;5024179;28;20116;-66
2021/06/03 07:07:54;;;;;;;11.82;5.85;;;20.50;66.40;;;;;;5023628;28;20507;-66
2021/06/03 07:10:20;;;;;;;10.85;6.43;;;20.50;66.50;;;;;;5024130;28;20044;-66
2021/06/03 07:12:47;;;;;;;9.40;5.90;;;20.50;66.70;;;;;;5022855;28;20044;-66
2021/06/03 07:15:15;;;;;;;8.50;6.40;;;20.50;66.80;;;;;;5022369;28;20029;-66
2021/06/03 07:17:41;;;;;;;8.25;6.03;;;20.60;67.10;;;;;;5022366;28;20140;-70
2021/06/03 07:20:10;;;;;;;10.85;6.68;;;20.70;67.40;;;;;;5023507;28;20128;-71
2021/06/03 07:22:42;;;;;;;6.85;5.32;;;21.00;67.20;;;;;;5021409;28;20255;-71
2021/06/03 07:25:09;;;;;;;26.90;7.97;;;21.20;66.70;;;;;;5037969;28;20037;-71
2021/06/03 07:27:36;;;;;;;12.18;7.22;;;21.40;66.60;;;;;;5024021;28;20044;-70
2021/06/03 07:30:04;;;;;;;11.25;6.95;;;21.50;65.90;;;;;;5022185;28;20579;-71
2021/06/03 07:32:31;;;;;;;10.20;6.07;;;21.60;65.10;;;;;;5023107;28;20081;-71
2021/06/03 07:34:57;;;;;;;7.90;6.95;;;21.70;65.20;;;;;;5027914;28;20083;-71
2021/06/03 07:37:24;;;;;;;15.13;6.97;;;21.80;65.40;;;;;;5030113;28;20042;-71
2021/06/03 07:39:50;;;;;;;9.35;6.28;;;21.90;65.20;;;;;;5028701;28;20052;-71
2021/06/03 07:42:17;;;;;;;8.50;6.53;;;22.00;65.10;;;;;;5031394;28;20476;-71
2021/06/03 07:44:43;;;;;;;30.60;8.38;;;22.00;64.90;;;;;;5028190;28;20037;-71
2021/06/03 07:47:09;;;;;;;8.95;6.53;;;22.00;64.60;;;;;;5030253;28;20034;-71
2021/06/03 07:49:41;;;;;;;19.05;7.25;;;22.00;64.60;;;;;;5027186;28;20055;-71
2021/06/03 07:52:08;;;;;;;32.92;8.30;;;22.00;64.90;;;;;;5032078;28;20480;-71
2021/06/03 07:54:34;;;;;;;14.63;7.28;;;22.10;65.10;;;;;;5030503;28;20034;-70
2021/06/03 07:57:00;;;;;;;8.50;5.25;;;22.20;65.30;;;;;;5027843;28;20065;-70
2021/06/03 07:59:27;;;;;;;9.88;5.88;;;22.30;64.60;;;;;;5026605;28;20651;-70
2021/06/03 08:01:53;;;;;;;8.48;4.13;;;22.40;64.70;;;;;;5021782;28;20042;-72
2021/06/03 08:04:20;;;;;;;13.38;7.85;;;22.50;63.50;;;;;;5022273;28;20053;-72
2021/06/03 08:06:46;;;;;;;12.90;6.00;;;22.60;63.80;;;;;;5023701;28;20038;-72
2021/06/03 08:09:15;;;;;;;14.65;6.80;;;22.60;63.80;;;;;;5021273;28;20041;-72
2021/06/03 08:11:44;;;;;;;15.88;6.85;;;22.40;64.00;;;;;;5019852;28;20048;-72
2021/06/03 08:14:10;;;;;;;16.25;6.63;;;22.40;64.20;;;;;;5022973;28;20038;-72
2021/06/03 08:16:57;;;;;;;26.33;7.38;;;22.50;64.50;;;;;;5008835;28;20087;-72
2021/06/03 08:19:23;;;;;;;39.20;10.00;;;22.40;64.80;;;;;;5022265;28;20089;-72
2021/06/03 08:21:50;;;;;;;15.23;7.55;;;22.50;65.30;;;;;;5021340;28;20029;-72
2021/06/03 08:24:16;;;;;;;8.88;6.53;;;22.50;65.20;;;;;;5021269;28;20520;-72
2021/06/03 08:26:43;;;;;;;17.65;7.80;;;22.50;65.50;;;;;;5027011;28;20088;-70
2021/06/03 08:29:08;;;;;;;15.30;6.20;;;22.60;65.50;;;;;;5024666;28;20044;-70
2021/06/03 08:31:37;;;;;;;14.15;5.88;;;22.80;64.30;;;;;;5005987;28;20048;-71
2021/06/03 08:34:23;;;;;;;16.27;6.28;;;23.00;63.90;;;;;;5010039;28;20385;-71
2021/06/03 08:37:09;;;;;;;12.02;6.57;;;23.30;63.20;;;;;;5025514;28;21068;-71
2021/06/03 08:39:35;;;;;;;20.67;8.20;;;23.60;62.80;;;;;;5025691;28;20037;-71
2021/06/03 08:42:01;;;;;;;19.52;8.13;;;23.90;62.30;;;;;;5021163;28;20045;-72
2021/06/03 08:44:30;;;;;;;19.05;9.63;;;24.10;61.10;;;;;;5021329;28;20458;-72
2021/06/03 08:46:57;;;;;;;10.43;5.85;;;24.20;60.40;;;;;;5023288;28;20042;-72
2021/06/03 08:49:23;;;;;;;13.93;4.90;;;24.20;59.90;;;;;;5022532;28;20045;-72
2021/06/03 08:51:53;;;;;;;9.43;6.05;;;24.50;59.60;;;;;;5023013;28;20080;-72
2021/06/03 08:54:20;;;;;;;9.38;7.25;;;24.80;59.30;;;;;;5021014;28;20051;-70
2021/06/03 08:56:46;;;;;;;10.95;6.75;;;24.90;58.20;;;;;;5023825;28;20034;-71
2021/06/03 08:59:12;;;;;;;10.20;7.78;;;25.00;57.90;;;;;;5021704;28;20049;-70
2021/06/03 09:01:41;;;;;;;12.02;7.75;;;25.20;58.20;;;;;;5020919;28;20064;-70
2021/06/03 09:04:06;;;;;;;14.27;7.50;;;25.30;57.90;;;;;;5002899;28;20489;-72
2021/06/03 09:06:32;;;;;;;10.25;6.63;;;25.30;58.00;;;;;;5020540;28;20043;-72
2021/06/03 09:08:59;;;;;;;12.25;7.80;;;25.50;58.00;;;;;;5021302;28;20040;-71
2021/06/03 09:11:31;;;;;;;11.43;7.82;;;25.50;57.00;;;;;;5018026;28;20076;-71
2021/06/03 09:14:03;;;;;;;10.48;6.47;;;25.50;57.00;;;;;;5019355;28;20037;-72
2021/06/03 09:16:31;;;;;;;;;;;25.50;57.50;;;;;;5022386;28;20071;-72
2021/06/03 09:19:04;;;;;;;21.98;7.63;;;25.60;57.80;;;;;;5022969;28;19920;-71
2021/06/03 09:21:44;;;;;;;10.13;5.45;;;25.50;57.40;;;;;;5020885;28;20042;-73
2021/06/03 09:24:13;;;;;;;9.35;6.50;;;25.70;57.70;;;;;;5017209;28;20087;-72
2021/06/03 09:26:45;;;;;;;22.20;7.22;;;26.00;58.00;;;;;;5020972;28;20049;-73
2021/06/03 09:29:12;;;;;;;15.47;6.17;;;26.20;57.40;;;;;;5020561;28;20118;-72
2021/06/03 09:31:39;;;;;;;9.80;6.65;;;26.40;56.80;;;;;;5036745;28;20085;-72
2021/06/03 09:34:14;;;;;;;11.15;6.22;;;26.50;56.10;;;;;;5020844;28;20726;-69
2021/06/03 09:37:00;;;;;;;9.90;6.85;;;26.70;55.60;;;;;;5018938;28;21006;-72
2021/06/03 09:39:40;;;;;;;10.93;6.63;;;27.00;55.80;;;;;;5019817;28;20372;-72
2021/06/03 09:42:14;;;;;;;9.85;7.93;;;27.10;55.50;;;;;;5019366;28;20044;-73
2021/06/03 09:44:45;;;;;;;14.02;7.05;;;27.00;54.90;;;;;;5020780;28;20154;-72
2021/06/03 09:47:16;;;;;;;20.40;8.55;;;26.80;55.00;;;;;;5019326;28;20060;-72
2021/06/03 09:49:55;;;;;;;12.68;7.60;;;26.80;54.60;;;;;;5021216;28;20046;-72
2021/06/03 09:52:27;;;;;;;9.65;8.07;;;26.70;54.60;;;;;;5020549;28;20393;-71
2021/06/03 09:54:56;;;;;;;11.35;8.63;;;26.60;54.80;;;;;;5019626;28;20037;-73
2021/06/03 09:57:35;;;;;;;22.30;8.15;;;26.40;55.00;;;;;;5019594;28;20044;-74
2021/06/03 10:00:07;;;;;;;10.13;9.05;;;26.20;55.60;;;;;;5019892;28;20437;-73
2021/06/03 10:02:34;;;;;;;13.60;9.55;;;25.90;56.30;;;;;;5018085;28;20504;-71
2021/06/03 10:05:00;;;;;;;11.95;8.52;;;25.60;56.90;;;;;;5019261;28;20041;-63
2021/06/03 10:07:28;;;;;;;10.80;8.52;;;25.40;57.60;;;;;;5021611;28;20047;-63
2021/06/03 10:09:58;;;;;;;32.45;9.60;;;25.20;58.00;;;;;;5019228;28;20107;-64
2021/06/03 10:12:24;;;;;;;10.63;7.95;;;25.20;58.70;;;;;;5019639;28;20042;-64
2021/06/03 10:15:14;;;;;;;13.75;8.38;;;25.00;58.50;;;;;;5024478;28;20050;-64
2021/06/03 10:17:49;;;;;;;25.15;8.90;;;25.00;58.50;;;;;;5011069;28;20159;-64
2021/06/03 10:20:22;;;;;;;14.23;10.23;;;24.90;58.50;;;;;;5023058;28;20049;-64
2021/06/03 10:22:52;;;;;;;15.48;9.07;;;24.90;59.20;;;;;;5023656;28;20133;-64
2021/06/03 10:25:32;;;;;;;9.93;8.30;;;24.80;59.10;;;;;;5023697;28;20447;-64
2021/06/03 10:28:08;;;;;;;27.35;10.13;;;24.80;59.10;;;;;;5025263;28;20065;-64
2021/06/03 10:30:41;;;;;;;16.70;9.63;;;24.80;59.00;;;;;;5023937;28;20120;-63
2021/06/03 10:33:13;;;;;;;10.10;9.10;;;24.80;59.30;;;;;;5023865;28;20096;-63
2021/06/03 10:35:42;;;;;;;13.05;8.65;;;24.80;59.30;;;;;;5024418;28;20493;-64
2021/06/03 10:38:10;;;;;;;11.85;9.55;;;24.80;59.30;;;;;;5023696;28;20111;-64
2021/06/03 10:40:52;;;;;;;13.27;9.43;;;24.80;59.60;;;;;;5006373;28;20053;-64
2021/06/03 10:43:18;;;;;;;16.10;9.38;;;24.80;59.70;;;;;;5024053;28;20037;-64
2021/06/03 10:45:45;;;;;;;11.95;10.70;;;24.80;60.30;;;;;;5024657;28;20103;-62
2021/06/03 10:48:11;;;;;;;12.52;10.55;;;24.70;60.00;;;;;;5023319;28;20038;-68
2021/06/03 10:50:49;;;;;;;11.65;10.55;;;24.60;60.20;;;;;;5023836;28;20046;-67
2021/06/03 10:53:21;;;;;;;14.35;11.43;;;24.60;60.40;;;;;;5039847;28;20033;-67
2021/06/03 10:55:50;;;;;;;20.38;12.27;;;24.60;60.60;;;;;;5021412;28;20038;-67
2021/06/03 10:58:18;;;;;;;19.35;11.95;;;24.80;60.90;;;;;;5021958;28;20041;-67
2021/06/03 11:00:58;;;;;;;25.25;10.88;;;24.90;60.60;;;;;;5022926;28;20042;-66
2021/06/03 11:03:45;;;;;;;15.07;11.23;;;25.10;60.20;;;;;;5023015;28;20033;-71
2021/06/03 11:06:13;;;;;;;42.00;33.05;;;25.40;59.50;;;;;;5021938;28;20089;-71
2021/06/03 11:08:41;;;;;;;25.00;22.48;;;25.50;58.90;;;;;;5025584;28;20454;-78
2021/06/03 11:11:10;;;;;;;22.77;9.63;;;25.50;58.70;;;;;;5037514;28;20048;-79
2021/06/03 11:13:48;;;;;;;18.75;11.88;;;25.60;58.90;;;;;;5046739;28;20072;-78
2021/06/03 11:16:24;;;;;;;14.88;11.05;;;25.70;58.80;;;;;;5011029;28;20037;-73
2021/06/03 11:18:53;;;;;;;12.88;11.05;;;25.80;58.40;;;;;;5027618;28;20520;-72
2021/06/03 11:21:31;;;;;;;13.18;11.77;;;25.70;58.00;;;;;;5023186;28;20041;-73
2021/06/03 11:23:58;;;;;;;41.42;12.95;;;25.60;58.20;;;;;;5022661;28;20033;-73
2021/06/03 11:26:39;;;;;;;12.27;10.32;;;25.60;58.80;;;;;;5023443;28;20026;-73
2021/06/03 11:29:22;;;;;;;11.18;9.95;;;25.50;58.40;;;;;;5022036;28;20112;-73
2021/06/03 11:31:50;;;;;;;;;;;25.60;58.70;;;;;;5021165;28;20052;-72
2021/06/03 11:34:22;;;;;;;23.02;11.73;;;25.70;58.40;;;;;;5024274;28;19921;-74
2021/06/03 11:37:06;;;;;;;15.40;10.98;;;25.80;58.40;;;;;;5022313;28;20037;-72
2021/06/03 11:39:31;;;;;;;10.65;8.65;;;25.90;58.40;;;;;;5021681;28;20069;-72
2021/06/03 11:42:21;;;;;;;11.68;10.48;;;26.10;58.20;;;;;;5021526;28;20113;-71
2021/06/03 11:45:04;;;;;;;11.63;10.52;;;26.20;57.10;;;;;;5024153;28;20036;-73
2021/06/03 11:47:52;;;;;;;12.57;11.02;;;26.10;57.00;;;;;;5025661;28;20038;-72
2021/06/03 11:50:18;;;;;;;13.00;9.40;;;26.00;57.40;;;;;;5022744;28;20088;-73
2021/06/03 11:52:56;;;;;;;12.43;9.80;;;25.80;57.90;;;;;;5007771;28;20850;-73
2021/06/03 11:55:32;;;;;;;36.22;10.43;;;25.90;58.40;;;;;;5021567;28;20068;-73
2021/06/03 11:58:21;;;;;;;15.65;9.50;;;25.90;57.90;;;;;;5023134;28;20049;-72
2021/06/03 12:00:50;;;;;;;10.85;9.05;;;25.80;57.60;;;;;;5022660;28;20025;-73
2021/06/03 12:03:23;;;;;;;18.90;9.10;;;25.70;58.20;;;;;;5021285;28;20056;-73
2021/06/03 12:05:49;;;;;;;9.93;8.80;;;25.70;58.00;;;;;;5022053;28;20048;-73
2021/06/03 12:08:31;;;;;;;9.77;8.60;;;25.70;58.30;;;;;;5006328;28;20042;-73
2021/06/03 12:10:57;;;;;;;19.02;8.70;;;25.70;57.90;;;;;;5022934;28;20085;-73
2021/06/03 12:13:23;;;;;;;10.25;8.65;;;25.60;58.40;;;;;;5023978;28;20588;-72
2021/06/03 12:15:48;;;;;;;21.70;8.55;;;25.60;58.50;;;;;;5023631;28;20381;-69
2021/06/03 12:18:15;;;;;;;9.05;7.22;;;25.60;59.40;;;;;;5024803;28;20132;-67
2021/06/03 12:20:40;;;;;;;15.18;7.82;;;25.60;60.20;;;;;;5024981;28;20037;-64
2021/06/03 12:23:11;;;;;;;15.50;9.00;;;25.70;61.70;;;;;;5020006;28;20034;-62
2021/06/03 12:25:39;;;;;;;16.08;7.47;;;25.60;63.10;;;;;;5021192;28;20041;-61
2021/06/03 12:28:06;;;;;;;8.05;4.90;;;25.60;63.80;;;;;;5022058;28;20034;-62
2021/06/03 12:30:35;;;;;;;13.52;8.00;;;25.50;62.70;;;;;;5021825;28;20103;-63
2021/06/03 12:33:25;;;;;;;14.50;10.32;;;25.50;64.20;;;;;;5023234;28;20056;-61
2021/06/03 12:35:59;;;;;;;10.02;8.27;;;25.40;66.00;;;;;;5022073;28;20071;-65
2021/06/03 12:38:28;;;;;;;9.02;6.25;;;25.20;65.90;;;;;;5021773;28;20072;-65
2021/06/03 12:40:56;;;;;;;11.50;6.45;;;25.10;65.20;;;;;;5022266;28;20037;-68
2021/06/03 12:43:21;;;;;;;10.50;5.95;;;25.00;65.70;;;;;;5020900;28;20116;-66
2021/06/03 12:45:48;;;;;;;7.20;5.60;;;24.90;64.00;;;;;;5021165;28;20125;-66
2021/06/03 12:48:15;;;;;;;7.00;5.75;;;25.00;64.60;;;;;;5021183;28;20061;-66
2021/06/03 12:50:48;;;;;;;7.88;5.25;;;24.90;66.00;;;;;;5022085;28;20038;-65
2021/06/03 12:53:18;;;;;;;7.63;6.43;;;24.90;65.40;;;;;;5020681;28;21226;-62